Time;durP1;ratioP1;P1;durP2;ratioP2;P2;SDS_P1;SDS_P2;PMS_P1;PMS_P2;Temp;Humidity;BMP_temperature;BMP_pressure;BME280_temperature;BME280_humidity;BME280_pressure;Samples;Min_cycle;Max_cycle;Signal;HPM_P1;HPM_P2
2021/10/20 00:02:55;;;;;;;;;;;6.60;99.90;;;;;;8442437;28;19929;-66
2021/10/20 00:06:56;;;;;;;;;;;6.50;99.90;;;;;;8460447;28;19953;-66
2021/10/20 00:10:57;;;;;;;;;;;6.60;99.90;;;;;;8442344;28;20171;-66
2021/10/20 00:14:57;;;;;;;;;;;6.40;99.90;;;;;;8459792;28;19903;-66
2021/10/20 00:18:58;;;;;;;;;;;6.40;99.90;;;;;;8460203;28;20216;-66
2021/10/20 00:22:58;;;;;;;;;;;6.20;99.90;;;;;;8460224;28;19903;-66
2021/10/20 00:26:59;;;;;;;;;;;6.10;99.90;;;;;;8460786;28;20006;-66
2021/10/20 00:30:59;;;;;;;;;;;6.00;99.90;;;;;;8441474;28;20321;-66
2021/10/20 00:35:00;;;;;;;;;;;6.20;99.90;;;;;;8459222;28;20449;-66
2021/10/20 00:39:00;;;;;;;;;;;6.10;99.90;;;;;;8459330;28;19903;-66
2021/10/20 00:43:00;;;;;;;;;;;6.00;99.90;;;;;;8459560;28;19911;-66
2021/10/20 00:47:01;;;;;;;;;;;6.00;99.90;;;;;;8458748;28;20015;-66
2021/10/20 00:51:01;;;;;;;;;;;6.10;99.90;;;;;;8457616;28;20337;-66
2021/10/20 00:55:03;;;;;;;;;;;6.10;99.90;;;;;;8457346;28;19910;-66
2021/10/20 00:59:03;;;;;;;;;;;6.10;99.90;;;;;;8457602;28;20468;-66
2021/10/20 01:03:04;;;;;;;;;;;5.80;99.90;;;;;;8457089;28;20009;-66
2021/10/20 01:07:05;;;;;;;;;;;5.80;99.90;;;;;;8438818;28;19908;-66
2021/10/20 01:11:06;;;;;;;;;;;5.80;99.90;;;;;;8465251;28;19914;-66
2021/10/20 01:15:20;;;;;;;;;;;5.80;99.90;;;;;;8463889;28;20279;-66
2021/10/20 01:19:21;;;;;;;;;;;5.70;99.90;;;;;;8463421;28;19951;-66
2021/10/20 01:23:21;;;;;;;;;;;5.60;99.90;;;;;;8445413;28;19930;-66
2021/10/20 01:27:22;;;;;;;;;;;5.50;99.90;;;;;;8465038;28;19904;-66
2021/10/20 01:31:22;;;;;;;;;;;5.40;99.90;;;;;;8447150;28;19903;-66
2021/10/20 01:35:23;;;;;;;;;;;5.60;99.90;;;;;;8464687;28;20360;-66
2021/10/20 01:39:23;;;;;;;;;;;5.60;99.90;;;;;;8465669;28;19910;-66
2021/10/20 01:43:24;;;;;;;;;;;5.70;99.90;;;;;;8446309;28;20287;-66
2021/10/20 01:47:24;;;;;;;;;;;5.70;99.90;;;;;;8464544;28;20418;-66
2021/10/20 01:51:25;;;;;;;;;;;5.70;99.90;;;;;;8446209;28;20602;-66
2021/10/20 01:55:25;;;;;;;;;;;5.70;99.90;;;;;;8463855;28;20459;-66
2021/10/20 01:59:25;;;;;;;;;;;5.70;99.90;;;;;;8463472;28;20072;-66
2021/10/20 02:03:27;;;;;;;;;;;6.00;99.90;;;;;;8445364;28;19908;-66
2021/10/20 02:07:27;;;;;;;;;;;6.10;99.90;;;;;;8464597;28;20389;-66
2021/10/20 02:11:28;;;;;;;;;;;5.90;99.90;;;;;;8463459;28;19994;-66
2021/10/20 02:15:28;;;;;;;;;;;5.80;99.90;;;;;;8463021;28;19910;-66
2021/10/20 02:19:29;;;;;;;;;;;5.60;99.90;;;;;;8462560;28;19907;-66
2021/10/20 02:23:30;;;;;;;;;;;6.10;99.90;;;;;;8462988;28;19904;-66
2021/10/20 02:27:30;;;;;;;;;;;6.10;99.90;;;;;;8462481;28;19908;-66
2021/10/20 02:31:31;;;;;;;;;;;5.90;99.90;;;;;;8443880;28;19908;-66
2021/10/20 02:35:31;;;;;;;;;;;6.10;99.90;;;;;;8443124;28;19904;-66
2021/10/20 02:39:32;;;;;;;;;;;6.10;99.90;;;;;;8461806;28;19995;-66
2021/10/20 02:43:35;;;;;;;;;;;6.10;99.90;;;;;;8463027;28;19907;-66
2021/10/20 02:47:36;;;;;;;;;;;6.20;99.90;;;;;;8462553;28;19916;-66
2021/10/20 02:51:36;;;;;;;;;;;6.20;99.90;;;;;;8461439;28;19948;-66
2021/10/20 02:55:39;;;;;;;;;;;6.20;99.90;;;;;;8461423;28;19962;-66
2021/10/20 02:59:40;;;;;;;;;;;6.30;99.90;;;;;;8461369;28;20255;-66
2021/10/20 03:03:40;;;;;;;;;;;6.10;99.90;;;;;;8461347;28;19958;-66
2021/10/20 03:07:47;;;;;;;;;;;5.90;99.90;;;;;;8462401;28;19908;-66
2021/10/20 03:11:48;;;;;;;;;;;5.80;99.90;;;;;;8442502;28;19908;-66
2021/10/20 03:15:48;;;;;;;;;;;6.00;99.90;;;;;;8460193;28;19910;-66
2021/10/20 03:19:49;;;;;;;;;;;5.90;99.90;;;;;;8460434;28;19903;-66
2021/10/20 03:23:49;;;;;;;;;;;5.80;99.90;;;;;;8460016;28;19903;-66
2021/10/20 03:27:50;;;;;;;;;;;5.80;99.90;;;;;;8460317;28;20313;-66
2021/10/20 03:31:51;;;;;;;;;;;5.90;99.90;;;;;;8460169;28;20019;-66
2021/10/20 03:35:51;;;;;;;;;;;6.10;99.90;;;;;;8460855;28;19903;-66
2021/10/20 03:39:51;;;;;;;;;;;6.20;99.90;;;;;;8459506;28;19910;-66
2021/10/20 03:43:52;;;;;;;;;;;6.30;99.90;;;;;;8442052;28;19910;-66
2021/10/20 03:47:52;;;;;;;;;;;6.40;99.90;;;;;;8459075;28;19946;-66
2021/10/20 03:51:53;;;;;;;;;;;6.40;99.90;;;;;;8459313;28;20370;-66
2021/10/20 03:55:53;;;;;;;;;;;6.50;99.90;;;;;;8458775;28;19919;-66
2021/10/20 03:59:54;;;;;;;;;;;6.40;99.90;;;;;;8458844;28;20352;-66
2021/10/20 04:03:54;;;;;;;;;;;6.30;99.90;;;;;;8459659;28;20393;-66
2021/10/20 04:07:55;;;;;;;;;;;6.00;99.90;;;;;;8458618;28;19915;-66
2021/10/20 04:11:55;;;;;;;;;;;5.90;99.90;;;;;;8439945;28;19911;-66
2021/10/20 04:15:56;;;;;;;;;;;5.80;99.90;;;;;;8459522;28;19914;-66
2021/10/20 04:19:56;;;;;;;;;;;5.90;99.90;;;;;;8441044;28;19908;-66
2021/10/20 04:23:57;;;;;;;;;;;6.00;99.90;;;;;;8458491;28;19943;-66
2021/10/20 04:27:57;;;;;;;;;;;5.90;99.90;;;;;;8458290;28;19908;-66
2021/10/20 04:31:58;;;;;;;;;;;5.90;99.90;;;;;;8438628;28;19911;-66
2021/10/20 04:35:58;;;;;;;;;;;6.10;99.90;;;;;;8456995;28;20263;-66
2021/10/20 04:39:59;;;;;;;;;;;6.20;99.90;;;;;;8457686;28;20294;-66
2021/10/20 04:44:00;;;;;;;;;;;6.40;99.90;;;;;;8456050;28;19915;-66
2021/10/20 04:48:00;;;;;;;;;;;6.40;99.90;;;;;;8457780;28;19908;-66
2021/10/20 04:52:00;;;;;;;;;;;6.40;99.90;;;;;;8457314;28;19907;-66
2021/10/20 04:56:01;;;;;;;;;;;6.40;99.90;;;;;;8457624;28;19915;-66
2021/10/20 05:00:03;;;;;;;;;;;6.60;99.90;;;;;;8457099;28;19943;-67
2021/10/20 05:04:04;;;;;;;;;;;6.60;99.90;;;;;;8455996;28;20111;-67
2021/10/20 05:08:04;;;;;;;;;;;6.60;99.90;;;;;;8456080;28;20300;-67
2021/10/20 05:12:06;;;;;;;;;;;6.60;99.90;;;;;;8456191;28;20292;-67
2021/10/20 05:16:06;;;;;;;;;;;6.60;99.90;;;;;;8457285;28;20371;-67
2021/10/20 05:20:08;;;;;;;;;;;6.70;99.90;;;;;;8457114;28;19949;-67
2021/10/20 05:24:08;;;;;;;;;;;6.70;99.90;;;;;;8455678;28;19989;-65
2021/10/20 05:28:09;;;;;;;;;;;6.80;99.90;;;;;;8456669;28;19908;-66
2021/10/20 05:32:09;;;;;;;;;;;7.10;99.90;;;;;;8438687;28;20178;-66
2021/10/20 05:36:10;;;;;;;;;;;7.20;99.90;;;;;;8427849;28;20384;-63
2021/10/20 05:40:10;;;;;;;;;;;7.20;99.90;;;;;;8457218;28;20295;-63
2021/10/20 05:44:13;;;;;;;;;;;7.30;99.90;;;;;;8456596;28;19903;-63
2021/10/20 05:48:15;;;;;;;;;;;7.40;99.90;;;;;;8455445;28;19912;-63
2021/10/20 05:52:15;;;;;;;;;;;7.50;99.90;;;;;;8448130;28;20002;-64
2021/10/20 05:56:16;;;;;;;;;;;7.70;99.90;;;;;;8461906;28;19945;-64
2021/10/20 06:00:16;;;;;;;;;;;7.70;99.90;;;;;;8461057;28;20048;-64
2021/10/20 06:04:17;;;;;;;;;;;7.80;99.90;;;;;;8461706;28;19912;-63
2021/10/20 06:08:17;;;;;;;;;;;7.80;99.90;;;;;;8460893;28;19912;-64
2021/10/20 06:12:18;;;;;;;;;;;7.80;99.90;;;;;;8451298;28;19908;-63
2021/10/20 06:16:18;;;;;;;;;;;7.80;99.90;;;;;;8462913;28;19911;-64
2021/10/20 06:20:19;;;;;;;;;;;8.00;99.90;;;;;;8464167;28;20325;-64
2021/10/20 06:24:19;;;;;;;;;;;8.20;99.90;;;;;;8462713;28;19908;-63
2021/10/20 06:28:20;;;;;;;;;;;8.10;99.90;;;;;;8459207;28;19911;-63
2021/10/20 06:32:20;;;;;;;;;;;8.00;99.90;;;;;;8460858;28;19908;-63
2021/10/20 06:36:22;;;;;;;;;;;8.10;99.90;;;;;;8460345;28;20500;-63
2021/10/20 06:40:23;;;;;;;;;;;8.10;99.90;;;;;;8461593;28;20447;-63
2021/10/20 06:44:25;;;;;;;;;;;8.20;99.90;;;;;;8460954;28;19912;-62
2021/10/20 06:48:26;;;;;;;;;;;8.50;99.90;;;;;;8460049;28;19919;-64
2021/10/20 06:52:26;;;;;;;;;;;8.80;99.90;;;;;;8462018;28;20446;-63
2021/10/20 06:56:27;;;;;;;;;;;8.70;99.90;;;;;;8461392;28;19919;-63
2021/10/20 07:00:27;;;;;;;;;;;8.70;99.90;;;;;;8461082;28;19908;-63
2021/10/20 07:04:27;;;;;;;;;;;9.40;99.90;;;;;;8460992;28;19934;-64
2021/10/20 07:08:28;;;;;;;;;;;10.00;99.90;;;;;;8459747;28;20394;-63
2021/10/20 07:12:31;;;;;;;;;;;10.60;99.90;;;;;;8461376;28;19907;-64
2021/10/20 07:16:33;;;;;;;;;;;11.00;99.90;;;;;;8462161;28;20202;-65
2021/10/20 07:20:33;;;;;;;;;;;11.40;99.90;;;;;;8441649;28;19934;-64
2021/10/20 07:24:34;;;;;;;;;;;11.60;99.90;;;;;;8459540;28;19939;-64
2021/10/20 07:28:35;;;;;;;;;;;11.90;99.90;;;;;;8459629;28;20264;-64
2021/10/20 07:32:37;;;;;;;;;;;12.50;99.90;;;;;;8459637;28;19912;-64
2021/10/20 07:36:38;;;;;;;;;;;12.80;99.90;;;;;;8459431;28;19908;-64
2021/10/20 07:40:38;;;;;;;;;;;13.20;99.90;;;;;;8442364;28;20166;-64
2021/10/20 07:44:39;;;;;;;;;;;13.40;99.90;;;;;;8459134;28;19912;-64
2021/10/20 07:48:39;;;;;;;;;;;13.60;99.90;;;;;;8426898;28;19908;-64
2021/10/20 07:52:40;;;;;;;;;;;13.70;99.90;;;;;;8426690;28;19904;-63
2021/10/20 07:56:43;;;;;;;;;;;13.90;99.90;;;;;;8437697;28;19916;-65
2021/10/20 08:00:44;;;;;;;;;;;14.00;99.90;;;;;;8439325;28;19914;-64
2021/10/20 08:04:44;;;;;;;;;;;14.00;99.90;;;;;;8458388;28;19904;-65
2021/10/20 08:08:45;;;;;;;;;;;14.20;99.90;;;;;;8458181;28;19912;-64
2021/10/20 08:12:45;;;;;;;;;;;14.30;99.90;;;;;;8459110;28;19910;-64
2021/10/20 08:16:46;;;;;;;;;;;14.60;99.90;;;;;;8459471;28;20208;-64
2021/10/20 08:20:46;;;;;;;;;;;14.80;99.90;;;;;;8460118;28;20290;-65
2021/10/20 08:24:47;;;;;;;;;;;14.90;99.90;;;;;;8448975;27;19908;-64
2021/10/20 08:28:47;;;;;;;;;;;15.10;99.90;;;;;;8454161;27;19912;-64
2021/10/20 08:32:52;;;;;;;;;;;15.20;99.90;;;;;;8457205;28;19907;-64
2021/10/20 08:36:53;;;;;;;;;;;15.30;99.90;;;;;;8453860;28;20244;-64
2021/10/20 08:40:55;;;;;;;;;;;15.30;99.90;;;;;;8455878;28;19915;-64
2021/10/20 08:44:55;;;;;;;;;;;15.30;99.90;;;;;;8457185;28;19960;-64
2021/10/20 08:48:56;;;;;;;;;;;15.40;99.90;;;;;;8458573;28;19911;-63
2021/10/20 08:52:57;;;;;;;;;;;15.60;99.90;;;;;;8458904;28;20286;-63
2021/10/20 08:56:59;;;;;;;;;;;15.80;99.90;;;;;;8454619;28;19960;-63
2021/10/20 09:00:59;;;;;;;;;;;15.90;99.90;;;;;;8457570;28;20321;-63
2021/10/20 09:05:00;;;;;;;;;;;16.00;99.90;;;;;;8456833;28;19904;-62
2021/10/20 09:09:04;;;;;;;;;;;15.90;99.90;;;;;;8457170;28;19911;-63
2021/10/20 09:13:05;;;;;;;;;;;15.70;99.90;;;;;;8457786;28;19957;-62
2021/10/20 09:17:05;;;;;;;;;;;15.90;99.90;;;;;;8457528;28;20002;-63
2021/10/20 09:21:06;;;;;;;;;;;16.00;99.90;;;;;;8439791;28;20379;-63
2021/10/20 09:25:06;;;;;;;;;;;16.20;99.90;;;;;;8458615;28;19953;-63
2021/10/20 09:29:23;;;;;;;;;;;16.40;99.90;;;;;;8442641;28;19912;-63
2021/10/20 09:33:24;;;;;;;;;;;16.50;99.90;;;;;;8463888;28;19954;-62
2021/10/20 09:37:26;;;;;;;;;;;16.60;99.90;;;;;;8460635;28;20260;-62
2021/10/20 09:41:27;;;;;;;;;;;16.90;99.90;;;;;;8462282;28;20187;-61
2021/10/20 09:45:32;;;;;;;;;;;17.10;99.90;;;;;;8463668;28;20279;-61
2021/10/20 09:49:33;;;;;;;;;;;17.10;99.90;;;;;;8461260;28;19998;-61
2021/10/20 09:53:35;;;;;;;;;;;17.10;99.90;;;;;;8463496;28;20275;-61
2021/10/20 09:57:36;;;;;;;;;;;17.50;99.90;;;;;;8462750;28;19912;-61
2021/10/20 10:01:36;;;;;;;;;;;17.70;99.90;;;;;;8462986;28;19907;-62
2021/10/20 10:05:37;;;;;;;;;;;18.00;99.90;;;;;;8445013;28;19903;-61
2021/10/20 10:09:37;;;;;;;;;;;17.90;99.90;;;;;;8462053;28;19915;-61
2021/10/20 10:13:50;;;;;;;;;;;18.10;99.90;;;;;;8462802;28;20379;-61
2021/10/20 10:17:55;;;;;;;;;;;18.50;99.90;;;;;;8462158;28;20127;-61
2021/10/20 10:21:57;;;;;;;;;;;18.40;99.90;;;;;;8444027;28;19910;-62
2021/10/20 10:25:59;;;;;;;;;;;18.70;99.90;;;;;;8463125;28;19904;-63
2021/10/20 10:30:03;;;;;;;;;;;19.80;99.90;;;;;;8462503;28;20200;-62
2021/10/20 10:34:04;;;;;;;;;;;21.00;99.90;;;;;;8461650;28;20477;-62
2021/10/20 10:38:05;;;;;;;;;;;22.60;99.90;;;;;;8463484;28;19904;-62
2021/10/20 10:42:05;;;;;;;;;;;22.60;99.90;;;;;;8441974;28;19904;-62
2021/10/20 10:46:12;;;;;;;;;;;22.00;99.90;;;;;;8461859;28;19907;-62
2021/10/20 10:50:12;;;;;;;;;;;21.50;99.90;;;;;;8461443;28;19908;-62
2021/10/20 10:54:13;;;;;;;;;;;21.60;99.90;;;;;;8462516;28;20355;-62
2021/10/20 10:58:17;;;;;;;;;;;21.00;99.90;;;;;;8462784;28;19911;-62
2021/10/20 11:02:36;;;;;;;;;;;22.10;99.90;;;;;;8461125;28;19954;-61
2021/10/20 11:06:37;;;;;;;;;;;21.80;99.90;;;;;;8444790;28;20002;-62
2021/10/20 11:10:38;;;;;;;;;;;20.40;99.90;;;;;;8462350;28;19953;-62
2021/10/20 11:14:40;;;;;;;;;;;19.70;99.90;;;;;;8462745;28;19911;-62
2021/10/20 11:18:51;;;;;;;;;;;20.50;99.90;;;;;;8443810;28;19908;-62
2021/10/20 11:22:55;;;;;;;;;;;21.70;99.90;;;;;;8443108;28;19915;-62
2021/10/20 11:26:59;;;;;;;;;;;22.70;99.90;;;;;;8461785;28;19907;-62
2021/10/20 11:31:04;;;;;;;;;;;24.00;99.90;;;;;;8459678;28;20010;-62
2021/10/20 11:35:05;;;;;;;;;;;24.00;99.90;;;;;;8459821;28;20282;-62
2021/10/20 11:39:05;;;;;;;;;;;22.60;99.90;;;;;;8459711;28;19904;-62
2021/10/20 11:43:13;;;;;;;;;;;22.20;99.90;;;;;;8460215;28;19955;-61
2021/10/20 11:47:20;;;;;;;;;;;21.20;99.90;;;;;;8440939;28;19938;-62
2021/10/20 11:51:20;;;;;;;;;;;21.70;99.90;;;;;;8458819;28;20250;-62
2021/10/20 11:55:21;;;;;;;;;;;22.90;99.90;;;;;;8458884;28;19911;-61
2021/10/20 11:59:23;;;;;;;;;;;23.10;99.90;;;;;;8458712;28;19915;-62
2021/10/20 12:03:33;;;;;;;;;;;21.50;99.90;;;;;;8460102;28;19907;-62
2021/10/20 12:07:34;;;;;;;;;;;21.50;99.90;;;;;;8459839;28;19958;-62
2021/10/20 12:11:35;;;;;;;;;;;22.00;99.90;;;;;;8460723;28;19904;-62
2021/10/20 12:15:40;;;;;;;;;;;21.90;99.90;;;;;;8458349;28;20291;-62
2021/10/20 12:19:41;;;;;;;;;;;21.30;99.90;;;;;;8458915;28;19994;-62
2021/10/20 12:23:42;;;;;;;;;;;22.00;99.90;;;;;;8458264;28;20378;-62
2021/10/20 12:27:43;;;;;;;;;;;23.10;99.90;;;;;;8457654;28;19904;-62
2021/10/20 12:31:44;;;;;;;;;;;24.20;99.20;;;;;;8457337;28;19904;-62
2021/10/20 12:35:48;;;;;;;;;;;22.70;99.90;;;;;;8457397;28;20295;-62
2021/10/20 12:39:49;;;;;;;;;;;21.50;99.90;;;;;;8455815;28;19998;-62
2021/10/20 12:43:50;;;;;;;;;;;20.80;99.90;;;;;;8457865;28;19915;-63
2021/10/20 12:47:54;;;;;;;;;;;20.60;99.90;;;;;;8455874;28;19923;-62
2021/10/20 12:51:55;;;;;;;;;;;20.90;99.90;;;;;;8457930;28;19907;-62
2021/10/20 12:55:57;;;;;;;;;;;22.40;99.90;;;;;;8458459;28;19915;-62
2021/10/20 13:00:03;;;;;;;;;;;24.70;99.20;;;;;;8454772;28;19934;-62
2021/10/20 13:04:04;;;;;;;;;;;23.90;98.20;;;;;;8456869;28;20394;-62
2021/10/20 13:08:04;;;;;;;;;;;22.30;99.90;;;;;;8457953;28;19976;-62
2021/10/20 13:12:05;;;;;;;;;;;21.50;99.90;;;;;;8458550;28;19904;-62
2021/10/20 13:16:05;;;;;;;;;;;22.30;99.90;;;;;;8457001;28;19994;-62
2021/10/20 13:20:07;;;;;;;;;;;23.10;99.90;;;;;;8456979;28;19908;-62
2021/10/20 13:24:07;;;;;;;;;;;22.10;99.90;;;;;;8455021;28;19912;-62
2021/10/20 13:28:08;;;;;;;;;;;21.90;99.90;;;;;;8455576;28;19965;-62
2021/10/20 13:32:08;;;;;;;;;;;21.80;99.90;;;;;;8455540;28;20036;-62
2021/10/20 13:36:12;;;;;;;;;;;22.30;99.90;;;;;;8456793;28;19903;-62
2021/10/20 13:40:13;;;;;;;;;;;22.60;99.90;;;;;;8457893;28;19903;-62
2021/10/20 13:44:13;;;;;;;;;;;22.90;99.90;;;;;;8457421;28;19904;-62
2021/10/20 13:48:14;;;;;;;;;;;23.00;99.80;;;;;;8456766;28;19914;-62
2021/10/20 13:52:15;;;;;;;;;;;22.80;99.90;;;;;;8455841;28;19911;-63
2021/10/20 13:56:15;;;;;;;;;;;22.20;99.90;;;;;;8455842;28;19989;-63
2021/10/20 14:00:16;;;;;;;;;;;21.80;99.90;;;;;;8456111;28;19998;-62
2021/10/20 14:04:17;;;;;;;;;;;21.50;99.90;;;;;;8457502;28;19953;-62
2021/10/20 14:08:18;;;;;;;;;;;21.10;99.90;;;;;;8457476;28;19907;-63
2021/10/20 14:12:18;;;;;;;;;;;20.70;99.90;;;;;;8455963;28;19904;-63
2021/10/20 14:16:19;;;;;;;;;;;20.40;99.90;;;;;;8458890;28;20363;-63
2021/10/20 14:20:21;;;;;;;;;;;20.30;99.90;;;;;;8462626;28;19907;-62
2021/10/20 14:24:21;;;;;;;;;;;20.20;99.90;;;;;;8444515;28;19910;-62
2021/10/20 14:28:22;;;;;;;;;;;19.70;99.90;;;;;;8462347;28;19934;-62
2021/10/20 14:32:22;;;;;;;;;;;19.50;99.90;;;;;;8461636;28;20375;-62
2021/10/20 14:36:23;;;;;;;;;;;19.40;99.90;;;;;;8461801;28;19904;-62
2021/10/20 14:40:23;;;;;;;;;;;19.30;99.90;;;;;;8462899;28;20161;-62
2021/10/20 14:44:26;;;;;;;;;;;19.00;99.90;;;;;;8463086;28;20002;-62
2021/10/20 14:48:27;;;;;;;;;;;18.80;99.90;;;;;;8444620;28;19951;-62
2021/10/20 14:52:27;;;;;;;;;;;18.80;99.90;;;;;;8463219;28;19903;-62
2021/10/20 14:56:28;;;;;;;;;;;18.80;99.90;;;;;;8462913;28;19990;-63
2021/10/20 15:00:28;;;;;;;;;;;18.80;99.90;;;;;;8463351;28;19928;-62
2021/10/20 15:04:29;;;;;;;;;;;18.80;99.90;;;;;;8463613;28;19903;-63
2021/10/20 15:08:29;;;;;;;;;;;18.80;99.90;;;;;;8462208;28;19908;-63
2021/10/20 15:12:30;;;;;;;;;;;18.70;99.90;;;;;;8462372;28;19954;-63
2021/10/20 15:16:30;;;;;;;;;;;18.60;99.90;;;;;;8462549;28;20290;-63
2021/10/20 15:20:51;;;;;;;;;;;18.50;99.90;;;;;;8462020;28;19903;-63
2021/10/20 15:24:51;;;;;;;;;;;18.40;99.90;;;;;;8462404;28;20132;-63
2021/10/20 15:28:53;;;;;;;;;;;18.30;99.90;;;;;;8460400;28;19907;-63
2021/10/20 15:32:53;;;;;;;;;;;18.20;99.90;;;;;;8462010;28;19904;-63
2021/10/20 15:36:53;;;;;;;;;;;18.10;99.90;;;;;;8462111;28;19915;-63
2021/10/20 15:40:54;;;;;;;;;;;17.90;99.90;;;;;;8461674;28;19904;-62
2021/10/20 15:44:54;;;;;;;;;;;17.80;99.90;;;;;;8460714;28;19904;-63
2021/10/20 15:48:56;;;;;;;;;;;17.60;99.90;;;;;;8460390;28;19907;-63
2021/10/20 15:52:57;;;;;;;;;;;17.60;99.90;;;;;;8460427;28;19904;-63
2021/10/20 15:56:58;;;;;;;;;;;17.40;99.90;;;;;;8441564;28;20374;-63
2021/10/20 16:00:59;;;;;;;;;;;17.40;99.90;;;;;;8460037;28;19904;-63
2021/10/20 16:04:59;;;;;;;;;;;17.40;99.90;;;;;;8459221;28;19947;-63
2021/10/20 16:09:00;;;;;;;;;;;17.40;99.90;;;;;;8457932;28;19908;-63
2021/10/20 16:13:01;;;;;;;;;;;17.40;99.90;;;;;;8457657;28;19930;-63
2021/10/20 16:17:02;;;;;;;;;;;17.40;99.90;;;;;;8458928;28;19920;-63
2021/10/20 16:21:03;;;;;;;;;;;17.30;99.90;;;;;;8456161;28;20383;-63
2021/10/20 16:25:05;;;;;;;;;;;17.20;99.90;;;;;;8453952;28;20287;-64
2021/10/20 16:29:05;;;;;;;;;;;17.00;99.90;;;;;;8457647;28;19935;-66
2021/10/20 16:33:06;;;;;;;;;;;17.00;99.90;;;;;;8445299;28;19915;-66
2021/10/20 16:37:07;;;;;;;;;;;16.90;99.90;;;;;;8424528;28;19915;-66
2021/10/20 16:41:07;;;;;;;;;;;16.80;99.90;;;;;;8441035;28;19918;-66
2021/10/20 16:45:09;;;;;;;;;;;16.70;99.90;;;;;;8446395;28;19911;-66
2021/10/20 16:49:10;;;;;;;;;;;16.70;99.90;;;;;;8435993;28;20283;-67
2021/10/20 16:53:10;;;;;;;;;;;16.70;99.90;;;;;;8457825;28;19958;-67
2021/10/20 16:57:10;;;;;;;;;;;16.70;99.90;;;;;;8457713;28;19911;-67
2021/10/20 17:01:11;;;;;;;;;;;16.70;99.90;;;;;;8459221;28;19915;-67
2021/10/20 17:05:11;;;;;;;;;;;16.80;99.90;;;;;;8439821;28;19955;-68
2021/10/20 17:09:13;;;;;;;;;;;16.80;99.90;;;;;;8450101;28;19919;-71
2021/10/20 17:13:13;;;;;;;;;;;16.90;99.90;;;;;;8456043;28;19907;-68
2021/10/20 17:17:14;;;;;;;;;;;16.90;99.90;;;;;;8456324;28;20287;-68
2021/10/20 17:21:14;;;;;;;;;;;16.80;99.90;;;;;;8458738;28;19918;-69
2021/10/20 17:25:15;;;;;;;;;;;16.90;99.90;;;;;;8438012;28;19918;-70
2021/10/20 17:29:16;;;;;;;;;;;16.90;99.90;;;;;;8439446;28;19911;-68
2021/10/20 17:33:16;;;;;;;;;;;16.80;99.90;;;;;;8445424;28;20003;-69
2021/10/20 17:37:17;;;;;;;;;;;16.80;99.90;;;;;;8454007;28;19965;-68
2021/10/20 17:41:18;;;;;;;;;;;16.80;99.90;;;;;;8454733;28;19908;-68
2021/10/20 17:45:19;;;;;;;;;;;16.80;99.90;;;;;;8454881;28;20378;-67
2021/10/20 17:49:23;;;;;;;;;;;16.70;99.90;;;;;;8455296;28;19914;-68
2021/10/20 17:53:23;;;;;;;;;;;16.70;99.90;;;;;;8460730;28;20426;-68
2021/10/20 17:57:24;;;;;;;;;;;16.70;99.90;;;;;;8460427;28;19960;-70
2021/10/20 18:01:24;;;;;;;;;;;16.70;99.90;;;;;;8460690;28;19914;-68
2021/10/20 18:05:25;;;;;;;;;;;16.60;99.90;;;;;;8461212;28;19904;-67
2021/10/20 18:09:26;;;;;;;;;;;16.60;99.90;;;;;;8442106;28;19907;-68
2021/10/20 18:13:28;;;;;;;;;;;16.50;99.90;;;;;;8461013;28;19957;-67
2021/10/20 18:17:28;;;;;;;;;;;16.50;99.90;;;;;;8459587;28;20363;-66
2021/10/20 18:21:29;;;;;;;;;;;16.40;99.90;;;;;;8459918;28;19912;-67
2021/10/20 18:25:29;;;;;;;;;;;16.60;99.90;;;;;;8460236;28;19923;-67
2021/10/20 18:29:30;;;;;;;;;;;16.60;99.90;;;;;;8459768;28;20010;-67
2021/10/20 18:33:30;;;;;;;;;;;16.60;99.90;;;;;;8460231;28;19911;-67
2021/10/20 18:37:31;;;;;;;;;;;16.60;99.90;;;;;;8459511;28;19908;-67
2021/10/20 18:41:32;;;;;;;;;;;16.60;99.90;;;;;;8458681;28;20422;-66
2021/10/20 18:45:32;;;;;;;;;;;16.50;99.90;;;;;;8446338;28;19907;-67
2021/10/20 18:49:33;;;;;;;;;;;16.40;99.90;;;;;;8457671;28;20679;-68
2021/10/20 18:53:34;;;;;;;;;;;16.30;99.90;;;;;;8459110;28;20359;-68
2021/10/20 18:57:35;;;;;;;;;;;16.30;99.90;;;;;;8457490;28;19924;-67
2021/10/20 19:01:35;;;;;;;;;;;16.20;99.90;;;;;;8438838;28;20400;-67
2021/10/20 19:05:38;;;;;;;;;;;16.20;99.90;;;;;;8458086;28;19904;-67
2021/10/20 19:09:38;;;;;;;;;;;16.20;99.90;;;;;;8457873;28;20493;-68
2021/10/20 19:13:39;;;;;;;;;;;16.20;99.90;;;;;;8458621;28;19904;-68
2021/10/20 19:17:39;;;;;;;;;;;16.20;99.90;;;;;;8457314;28;19947;-67
2021/10/20 19:21:40;;;;;;;;;;;16.20;99.90;;;;;;8439191;28;19908;-68
2021/10/20 19:25:41;;;;;;;;;;;16.20;99.90;;;;;;8456973;28;20447;-68
2021/10/20 19:29:42;;;;;;;;;;;16.00;99.90;;;;;;8455169;28;19912;-67
2021/10/20 19:33:42;;;;;;;;;;;16.00;99.90;;;;;;8456245;28;20020;-67
2021/10/20 19:37:43;;;;;;;;;;;16.00;99.90;;;;;;8455582;28;20359;-67
2021/10/20 19:41:43;;;;;;;;;;;16.20;99.90;;;;;;8455766;28;19908;-67
2021/10/20 19:45:45;;;;;;;;;;;16.10;99.90;;;;;;8455981;28;20519;-68
2021/10/20 19:49:45;;;;;;;;;;;16.10;99.90;;;;;;8453094;28;19912;-67
2021/10/20 19:53:46;;;;;;;;;;;16.20;99.90;;;;;;8459921;28;20386;-66
2021/10/20 19:57:47;;;;;;;;;;;16.30;99.90;;;;;;8458755;28;20338;-66
2021/10/20 20:01:47;;;;;;;;;;;16.30;99.90;;;;;;8458400;28;19915;-66
2021/10/20 20:05:48;;;;;;;;;;;16.20;99.90;;;;;;8457498;28;19903;-66
2021/10/20 20:09:48;;;;;;;;;;;16.10;99.90;;;;;;8457045;28;19908;-66
2021/10/20 20:13:49;;;;;;;;;;;16.00;99.90;;;;;;8457890;28;20382;-66
2021/10/20 20:17:50;;;;;;;;;;;15.90;99.90;;;;;;8458704;28;20383;-66
2021/10/20 20:21:51;;;;;;;;;;;15.90;99.90;;;;;;8459667;28;19943;-66
2021/10/20 20:25:51;;;;;;;;;;;15.90;99.90;;;;;;8459726;28;19904;-66
2021/10/20 20:29:54;;;;;;;;;;;15.80;99.90;;;;;;8458958;28;19957;-66
2021/10/20 20:33:55;;;;;;;;;;;15.70;99.90;;;;;;8458991;28;19972;-66
2021/10/20 20:37:55;;;;;;;;;;;15.50;99.90;;;;;;8458975;28;20044;-66
2021/10/20 20:41:56;;;;;;;;;;;15.40;99.90;;;;;;8459688;28;20279;-66
2021/10/20 20:45:56;;;;;;;;;;;15.30;99.90;;;;;;8441423;28;20339;-66
2021/10/20 20:49:57;;;;;;;;;;;15.10;99.90;;;;;;8458350;28;20271;-67
2021/10/20 20:53:57;;;;;;;;;;;14.90;99.90;;;;;;8440719;28;20610;-66
2021/10/20 20:57:57;;;;;;;;;;;14.50;99.90;;;;;;8456819;28;20177;-66
2021/10/20 21:01:58;;;;;;;;;;;14.40;99.90;;;;;;8456394;28;19940;-67
2021/10/20 21:05:58;;;;;;;;;;;14.30;99.90;;;;;;8458905;28;19904;-66
2021/10/20 21:10:02;;;;;;;;;;;14.10;99.90;;;;;;8457602;28;19960;-66
2021/10/20 21:14:02;;;;;;;;;;;14.00;99.90;;;;;;8457524;28;19907;-66
2021/10/20 21:18:03;;;;;;;;;;;14.00;99.90;;;;;;8457850;28;20382;-66
2021/10/20 21:22:04;;;;;;;;;;;13.80;99.90;;;;;;8457878;28;20002;-66
2021/10/20 21:26:04;;;;;;;;;;;13.70;99.90;;;;;;8443375;28;19908;-66
2021/10/20 21:30:05;;;;;;;;;;;13.90;99.90;;;;;;8462884;28;19907;-66
2021/10/20 21:34:06;;;;;;;;;;;14.00;99.90;;;;;;8463146;28;19905;-66
2021/10/20 21:38:06;;;;;;;;;;;14.20;99.90;;;;;;8463496;28;20518;-66
2021/10/20 21:42:07;;;;;;;;;;;14.20;99.90;;;;;;8465357;28;20001;-66
2021/10/20 21:46:08;;;;;;;;;;;14.30;99.90;;;;;;8462813;28;19950;-66
2021/10/20 21:50:12;;;;;;;;;;;14.20;99.90;;;;;;8463779;28;19907;-66
2021/10/20 21:54:12;;;;;;;;;;;14.00;99.90;;;;;;8444470;28;19914;-66
2021/10/20 21:58:13;;;;;;;;;;;14.00;99.90;;;;;;8463630;28;20573;-66
2021/10/20 22:02:13;;;;;;;;;;;14.20;99.90;;;;;;8463150;28;20521;-66
2021/10/20 22:06:14;;;;;;;;;;;14.20;99.90;;;;;;8462709;28;19911;-66
2021/10/20 22:10:15;;;;;;;;;;;14.00;99.90;;;;;;8463575;28;20382;-66
2021/10/20 22:14:15;;;;;;;;;;;14.10;99.90;;;;;;8463072;28;19908;-66
2021/10/20 22:18:16;;;;;;;;;;;13.70;99.90;;;;;;8462707;28;19904;-66
2021/10/20 22:22:17;;;;;;;;;;;13.70;99.90;;;;;;8444036;28;19915;-66
2021/10/20 22:26:21;;;;;;;;;;;13.80;99.90;;;;;;8463947;28;19908;-66
2021/10/20 22:30:22;;;;;;;;;;;13.80;99.90;;;;;;8409242;28;20007;-66
2021/10/20 22:34:22;;;;;;;;;;;13.50;99.90;;;;;;8427397;28;19910;-66
2021/10/20 22:38:23;;;;;;;;;;;13.40;99.90;;;;;;8427962;28;20002;-66
2021/10/20 22:42:23;;;;;;;;;;;13.30;99.90;;;;;;8427360;28;19919;-66
2021/10/20 22:46:24;;;;;;;;;;;13.50;99.90;;;;;;8427368;28;19950;-66
2021/10/20 22:50:24;;;;;;;;;;;13.70;99.90;;;;;;8409496;28;19908;-67
2021/10/20 22:54:27;;;;;;;;;;;13.70;99.90;;;;;;8426891;28;19942;-66
2021/10/20 22:58:28;;;;;;;;;;;13.80;99.90;;;;;;8446203;28;19959;-66
2021/10/20 23:02:28;;;;;;;;;;;13.90;99.90;;;;;;8461681;28;19910;-66
2021/10/20 23:06:29;;;;;;;;;;;14.00;99.90;;;;;;8463195;28;19904;-66
2021/10/20 23:10:29;;;;;;;;;;;14.10;99.90;;;;;;8443614;28;19908;-66
2021/10/20 23:14:34;;;;;;;;;;;14.20;99.90;;;;;;8462558;28;19927;-67
2021/10/20 23:18:34;;;;;;;;;;;13.90;99.90;;;;;;8461993;28;19907;-67
2021/10/20 23:22:35;;;;;;;;;;;13.80;99.90;;;;;;8462279;28;19929;-66
2021/10/20 23:26:35;;;;;;;;;;;13.80;99.90;;;;;;8462274;28;19958;-66
2021/10/20 23:30:36;;;;;;;;;;;13.60;99.90;;;;;;8461505;28;19907;-67